Time;durP1;ratioP1;P1;durP2;ratioP2;P2;SDS_P1;SDS_P2;PMS_P1;PMS_P2;Temp;Humidity;BMP_temperature;BMP_pressure;BME280_temperature;BME280_humidity;BME280_pressure;Samples;Min_cycle;Max_cycle;Signal;HPM_P1;HPM_P2
2020/12/04 00:00:53;;;;;;;29.80;20.20;;;;;;;1.10;76.19;99679.50;1684936;83;25845;-79
2020/12/04 00:03:20;;;;;;;32.15;20.23;;;;;;;1.13;76.23;99686.64;1682167;83;25844;-78
2020/12/04 00:05:46;;;;;;;38.38;24.45;;;;;;;1.12;76.19;99674.25;1662049;84;25869;-79
2020/12/04 00:08:12;;;;;;;37.42;22.40;;;;;;;1.10;76.18;99680.78;1681009;83;25911;-79
2020/12/04 00:10:38;;;;;;;32.45;21.05;;;;;;;1.12;76.25;99678.11;1684248;83;25812;-79
2020/12/04 00:13:04;;;;;;;32.65;21.60;;;;;;;1.15;76.26;99669.33;1683686;83;25929;-79
2020/12/04 00:15:31;;;;;;;34.73;20.30;;;;;;;1.11;76.17;99668.25;1682827;84;25766;-79
2020/12/04 00:17:57;;;;;;;33.18;20.30;;;;;;;1.09;76.15;99666.30;1680774;83;26322;-79
2020/12/04 00:20:23;;;;;;;38.05;22.52;;;;;;;1.06;76.17;99660.11;1683493;83;26530;-79
2020/12/04 00:22:50;;;;;;;32.53;19.85;;;;;;;1.06;76.26;99666.98;1667911;84;25779;-79
2020/12/04 00:25:17;;;;;;;37.83;23.05;;;;;;;1.06;76.32;99665.26;1689046;82;25822;-79
2020/12/04 00:27:43;;;;;;;35.23;22.02;;;;;;;1.07;76.34;99660.92;1674335;83;25986;-79
2020/12/04 00:30:10;;;;;;;34.00;22.77;;;;;;;1.08;76.33;99659.50;1632496;85;25802;-78
2020/12/04 00:32:36;;;;;;;34.63;21.87;;;;;;;1.08;76.37;99653.06;1621269;86;26410;-78
2020/12/04 00:35:02;;;;;;;35.75;21.55;;;;;;;1.04;76.35;99654.27;1623399;85;25761;-78
2020/12/04 00:37:29;;;;;;;34.23;21.62;;;;;;;1.05;76.38;99659.74;1624611;85;26354;-78
2020/12/04 00:39:55;;;;;;;37.80;23.02;;;;;;;1.06;76.40;99651.55;1625205;85;26387;-81
2020/12/04 00:42:21;;;;;;;35.17;22.42;;;;;;;1.04;76.46;99660.69;1625054;86;25890;-80
2020/12/04 00:44:48;;;;;;;36.98;22.75;;;;;;;1.05;76.48;99662.80;1624561;86;26299;-80
2020/12/04 00:47:16;;;;;;;40.12;22.13;;;;;;;1.07;76.44;99673.31;1622192;85;25783;-80
2020/12/04 00:49:42;;;;;;;36.35;20.88;;;;;;;1.06;76.50;99672.98;1620692;85;25856;-80
2020/12/04 00:52:10;;;;;;;34.92;20.12;;;;;;;1.05;76.52;99673.09;1622266;86;26442;-80
2020/12/04 00:54:36;;;;;;;34.70;21.27;;;;;;;1.08;76.57;99680.08;1621168;86;25874;-81
2020/12/04 00:57:06;;;;;;;34.70;21.73;;;;;;;1.08;76.54;99673.65;1622518;85;26547;-80
2020/12/04 00:59:34;;;;;;;34.45;20.25;;;;;;;1.10;76.55;99670.97;1620534;85;25375;-81
2020/12/04 01:02:00;;;;;;;34.13;21.17;;;;;;;1.09;76.51;99670.16;1624991;85;25932;-80
2020/12/04 01:04:27;;;;;;;32.67;20.88;;;;;;;1.07;76.53;99671.22;1623292;85;25768;-81
2020/12/04 01:06:53;;;;;;;35.17;21.57;;;;;;;1.07;76.59;99669.45;1625363;85;25881;-81
2020/12/04 01:09:19;;;;;;;34.43;20.93;;;;;;;1.07;76.58;99658.34;1619602;86;33230;-81
2020/12/04 01:11:45;;;;;;;32.67;20.77;;;;;;;1.05;76.55;99645.59;1627295;84;25578;-80
2020/12/04 01:14:11;;;;;;;36.83;20.90;;;;;;;1.06;76.60;99643.83;1625715;86;25535;-80
2020/12/04 01:16:37;;;;;;;37.57;21.70;;;;;;;1.04;76.58;99631.10;1623461;85;25733;-80
2020/12/04 01:19:04;;;;;;;37.10;21.60;;;;;;;1.04;76.59;99644.45;1621018;86;25977;-80
2020/12/04 01:21:30;;;;;;;33.85;20.50;;;;;;;1.01;76.64;99634.37;1620666;86;25956;-80
2020/12/04 01:23:56;;;;;;;35.73;21.57;;;;;;;1.02;76.66;99638.59;1619904;86;25849;-80
2020/12/04 01:26:22;;;;;;;36.42;21.62;;;;;;;0.99;76.61;99642.70;1617596;85;25891;-80
2020/12/04 01:28:49;;;;;;;33.70;19.73;;;;;;;1.01;76.74;99637.78;1620960;85;25965;-80
2020/12/04 01:31:15;;;;;;;35.40;20.95;;;;;;;0.98;76.68;99635.91;1623295;86;25896;-80
2020/12/04 01:33:41;;;;;;;35.92;21.20;;;;;;;0.99;76.76;99629.36;1623943;86;25919;-80
2020/12/04 01:36:07;;;;;;;36.05;21.45;;;;;;;1.00;76.75;99627.60;1623839;84;25699;-80
2020/12/04 01:38:33;;;;;;;37.23;21.48;;;;;;;0.98;76.79;99626.45;1626551;85;25977;-81
2020/12/04 01:41:02;;;;;;;36.05;19.25;;;;;;;1.02;76.84;99629.11;1622905;86;25873;-81
2020/12/04 01:43:29;;;;;;;35.15;21.05;;;;;;;1.03;76.82;99620.92;1621843;85;26576;-80
2020/12/04 01:45:56;;;;;;;33.28;20.88;;;;;;;1.05;76.81;99615.19;1624627;85;25814;-81
2020/12/04 01:48:23;;;;;;;39.40;22.55;;;;;;;1.04;76.82;99615.66;1621455;84;26399;-81
2020/12/04 01:50:51;;;;;;;37.00;21.75;;;;;;;1.05;76.84;99615.19;1622551;86;25747;-81
2020/12/04 01:53:19;;;;;;;36.00;21.07;;;;;;;1.06;76.84;99611.22;1624302;85;25772;-80
2020/12/04 01:55:46;;;;;;;34.08;20.72;;;;;;;1.07;76.87;99612.84;1625431;85;25645;-81
2020/12/04 01:58:13;;;;;;;31.87;20.43;;;;;;;1.09;76.88;99595.98;1625841;85;26360;-79
2020/12/04 02:00:39;;;;;;;33.92;20.68;;;;;;;1.10;76.86;99586.86;1621648;85;26456;-79
2020/12/04 02:03:08;;;;;;;33.67;21.10;;;;;;;1.09;76.85;99586.53;1623698;86;26824;-79
2020/12/04 02:05:40;;;;;;;40.25;21.50;;;;;;;1.11;76.85;99592.34;1624285;86;25990;-79
2020/12/04 02:08:21;;;;;;;33.40;21.07;;;;;;;1.11;76.83;99584.63;1622442;86;25736;-79
2020/12/04 02:10:56;;;;;;;31.57;18.98;;;;;;;1.14;76.90;99586.13;1601795;87;27296;-79
2020/12/04 02:13:22;;;;;;;36.80;22.27;;;;;;;1.15;76.90;99576.68;1622408;85;25529;-79
2020/12/04 02:15:49;;;;;;;36.17;20.80;;;;;;;1.18;76.88;99577.72;1617835;86;25945;-79
2020/12/04 02:18:16;;;;;;;33.10;21.30;;;;;;;1.18;76.81;99569.52;1630280;85;26536;-79
2020/12/04 02:21:02;;;;;;;35.55;22.98;;;;;;;1.19;76.86;99572.91;1624295;85;25592;-79
2020/12/04 02:23:29;;;;;;;35.25;20.90;;;;;;;1.21;76.84;99567.17;1625338;86;26003;-79
2020/12/04 02:25:57;;;;;;;32.40;20.72;;;;;;;1.19;76.76;99562.13;1624993;85;25782;-79
2020/12/04 02:28:35;;;;;;;33.83;19.48;;;;;;;1.20;76.83;99561.21;1624153;85;26025;-79
2020/12/04 02:31:21;;;;;;;32.05;19.75;;;;;;;1.21;76.81;99562.02;1627457;86;26244;-80
2020/12/04 02:33:48;;;;;;;35.48;19.62;;;;;;;1.19;76.77;99557.46;1621459;86;25593;-79
2020/12/04 02:36:15;;;;;;;37.13;21.27;;;;;;;1.19;76.83;99553.60;1623513;86;26389;-79
2020/12/04 02:38:42;;;;;;;33.45;20.20;;;;;;;1.18;76.80;99545.55;1624285;86;26302;-79
2020/12/04 02:41:09;;;;;;;35.00;20.88;;;;;;;1.19;76.79;99540.26;1623743;86;26545;-79
2020/12/04 02:43:36;;;;;;;32.65;19.57;;;;;;;1.20;76.79;99542.35;1622677;85;25945;-78
2020/12/04 02:46:03;;;;;;;34.20;21.27;;;;;;;1.17;76.77;99531.03;1624300;85;26137;-79
2020/12/04 02:48:29;;;;;;;32.30;20.88;;;;;;;1.14;76.80;99531.28;1618903;85;25720;-78
2020/12/04 02:50:56;;;;;;;33.30;20.17;;;;;;;1.13;76.83;99548.48;1623354;86;25769;-79
2020/12/04 02:53:22;;;;;;;32.70;20.77;;;;;;;1.15;76.90;99553.52;1620233;86;25746;-79
2020/12/04 02:55:48;;;;;;;35.28;20.55;;;;;;;1.16;76.93;99551.28;1623074;86;26491;-79
2020/12/04 02:58:14;;;;;;;32.63;19.60;;;;;;;1.15;76.86;99547.09;1619678;85;25791;-79
2020/12/04 03:00:40;;;;;;;32.83;19.97;;;;;;;1.16;76.95;99536.66;1625951;85;33487;-79
2020/12/04 03:03:06;;;;;;;34.43;20.27;;;;;;;1.19;76.92;99533.02;1621580;85;25925;-79
2020/12/04 03:05:32;;;;;;;34.58;19.82;;;;;;;1.18;76.92;99532.68;1620861;86;25993;-79
2020/12/04 03:07:58;;;;;;;35.92;21.45;;;;;;;1.16;76.98;99519.11;1623030;86;25819;-79
2020/12/04 03:10:27;;;;;;;36.08;20.48;;;;;;;1.16;76.96;99516.06;1623129;86;25937;-79
2020/12/04 03:13:21;;;;;;;36.88;21.90;;;;;;;1.18;76.95;99523.20;1621979;86;25774;-79
2020/12/04 03:15:47;;;;;;;34.98;21.50;;;;;;;1.17;76.93;99520.25;1622418;85;25897;-79
2020/12/04 03:18:13;;;;;;;35.40;20.23;;;;;;;1.16;76.98;99514.78;1622504;86;26817;-78
2020/12/04 03:20:39;;;;;;;31.40;20.62;;;;;;;1.17;77.02;99513.82;1619947;85;25825;-78
2020/12/04 03:23:20;;;;;;;35.43;20.80;;;;;;;1.16;77.03;99518.64;1619818;86;25850;-79
2020/12/04 03:25:48;;;;;;;37.23;22.42;;;;;;;1.16;77.06;99509.62;1623876;85;26355;-78
2020/12/04 03:28:14;;;;;;;31.48;19.00;;;;;;;1.18;77.08;99505.18;1623479;85;25989;-78
2020/12/04 03:30:40;;;;;;;37.83;19.77;;;;;;;1.18;77.09;99503.89;1627281;85;25817;-78
2020/12/04 03:33:07;;;;;;;33.85;19.42;;;;;;;1.19;77.08;99499.56;1629289;86;25785;-79
2020/12/04 03:35:33;;;;;;;33.50;20.25;;;;;;;1.19;77.03;99500.84;1627061;86;26675;-78
2020/12/04 03:37:59;;;;;;;37.05;20.45;;;;;;;1.21;77.08;99502.83;1670052;83;25991;-78
2020/12/04 03:40:25;;;;;;;36.53;20.72;;;;;;;1.22;77.08;99509.12;1653791;84;25702;-79
2020/12/04 03:42:52;;;;;;;36.05;19.90;;;;;;;1.25;77.14;99506.28;1659976;84;26439;-78
2020/12/04 03:45:18;;;;;;;38.88;21.10;;;;;;;1.26;77.04;99505.84;1661079;84;25886;-79
2020/12/04 03:47:44;;;;;;;34.50;19.52;;;;;;;1.24;77.00;99505.95;1661183;84;26014;-79
2020/12/04 03:50:10;;;;;;;31.27;19.20;;;;;;;1.24;77.01;99503.86;1660922;84;25884;-79
2020/12/04 03:52:36;;;;;;;32.42;20.25;;;;;;;1.19;77.01;99502.94;1636657;84;26419;-80
2020/12/04 03:55:03;;;;;;;33.50;20.20;;;;;;;1.19;77.09;99503.41;1661009;84;25696;-79
2020/12/04 03:57:29;;;;;;;37.70;20.15;;;;;;;1.19;77.12;99498.27;1658681;84;25806;-79
2020/12/04 03:59:56;;;;;;;32.23;19.52;;;;;;;1.18;77.16;99495.36;1663208;84;25931;-79
2020/12/04 04:02:22;;;;;;;29.92;19.05;;;;;;;1.20;77.12;99499.89;1635928;85;26504;-79
2020/12/04 04:04:48;;;;;;;36.10;20.95;;;;;;;1.18;77.09;99495.36;1661575;84;25837;-78
2020/12/04 04:07:15;;;;;;;33.60;18.82;;;;;;;1.17;77.16;99484.23;1662235;84;26692;-78
2020/12/04 04:09:42;;;;;;;30.43;18.60;;;;;;;1.16;77.19;99479.23;1648974;84;25820;-79
2020/12/04 04:12:10;;;;;;;35.03;21.07;;;;;;;1.15;77.15;99478.89;1660974;84;25741;-79
2020/12/04 04:14:37;;;;;;;35.38;22.22;;;;;;;1.14;77.21;99469.52;1663269;84;25808;-79
2020/12/04 04:17:03;;;;;;;31.95;20.27;;;;;;;1.15;77.28;99460.41;1662594;84;25746;-78
2020/12/04 04:19:30;;;;;;;32.33;19.77;;;;;;;1.14;77.29;99452.80;1662720;84;25695;-79
2020/12/04 04:21:56;;;;;;;32.90;20.75;;;;;;;1.11;77.26;99457.24;1663217;84;25844;-79
2020/12/04 04:24:23;;;;;;;29.35;18.52;;;;;;;1.09;77.34;99463.02;1665681;84;25983;-79
2020/12/04 04:26:50;;;;;;;29.23;18.48;;;;;;;1.08;77.41;99470.37;1665345;84;25892;-80
2020/12/04 04:29:16;;;;;;;31.20;19.27;;;;;;;1.07;77.42;99471.32;1662825;84;25525;-79
2020/12/04 04:31:42;;;;;;;33.60;20.17;;;;;;;1.10;77.43;99476.69;1637204;84;26405;-80
2020/12/04 04:34:09;;;;;;;30.80;19.30;;;;;;;1.09;77.44;99473.30;1660480;84;25851;-79
2020/12/04 04:36:41;;;;;;;37.50;21.90;;;;;;;1.10;77.45;99472.83;1660399;84;25930;-79
2020/12/04 04:39:08;;;;;;;28.87;18.42;;;;;;;1.09;77.48;99478.89;1660149;84;25829;-80
2020/12/04 04:41:34;;;;;;;30.12;18.90;;;;;;;1.09;77.60;99476.33;1660012;84;25922;-79
2020/12/04 04:44:00;;;;;;;32.20;19.15;;;;;;;1.08;77.54;99480.66;1661203;84;25883;-78
2020/12/04 04:46:54;;;;;;;30.37;18.77;;;;;;;1.09;77.59;99478.45;1659905;84;25947;-80
2020/12/04 04:49:27;;;;;;;34.30;20.27;;;;;;;1.11;77.61;99477.02;1661835;84;26386;-78
2020/12/04 04:51:56;;;;;;;32.15;19.00;;;;;;;1.11;77.63;99476.55;1662117;84;25672;-79
2020/12/04 04:54:27;;;;;;;32.17;19.87;;;;;;;1.10;77.67;99476.21;1656865;84;26327;-78
2020/12/04 04:56:54;;;;;;;33.25;19.48;;;;;;;1.12;77.69;99474.81;1657670;84;25965;-79
2020/12/04 04:59:21;;;;;;;30.23;19.05;;;;;;;1.08;77.69;99468.27;1659528;84;25951;-79
2020/12/04 05:01:49;;;;;;;31.37;19.62;;;;;;;1.06;77.72;99468.86;1662410;84;25890;-79
2020/12/04 05:04:17;;;;;;;31.82;20.10;;;;;;;1.06;77.79;99470.15;1658876;84;25711;-78
2020/12/04 05:06:44;;;;;;;33.73;19.45;;;;;;;1.07;77.85;99470.52;1659704;84;25895;-78
2020/12/04 05:09:18;;;;;;;29.67;19.27;;;;;;;1.07;77.87;99478.23;1659885;84;25858;-79
2020/12/04 05:11:59;;;;;;;28.47;18.32;;;;;;;1.07;77.90;99475.66;1656716;84;26490;-78
2020/12/04 05:14:26;;;;;;;31.77;19.23;;;;;;;1.06;77.90;99468.86;1660676;84;25913;-78
2020/12/04 05:16:56;;;;;;;32.10;19.25;;;;;;;1.08;77.99;99478.56;1663947;84;26880;-78
2020/12/04 05:19:36;;;;;;;33.05;18.80;;;;;;;1.08;78.03;99472.94;1663573;83;25952;-78
2020/12/04 05:22:14;;;;;;;30.25;18.57;;;;;;;1.07;78.02;99477.75;1660839;84;25939;-79
2020/12/04 05:24:43;;;;;;;33.65;19.65;;;;;;;1.09;78.04;99474.59;1653919;84;25872;-78
2020/12/04 05:27:30;;;;;;;32.70;20.85;;;;;;;1.11;78.03;99473.16;1660570;84;26319;-78
2020/12/04 05:30:25;;;;;;;27.55;18.75;;;;;;;1.11;78.00;99470.11;1661828;84;25759;-78
2020/12/04 05:33:01;;;;;;;31.97;19.35;;;;;;;1.13;78.03;99470.00;1583487;88;26593;-79
2020/12/04 05:35:29;;;;;;;27.42;17.48;;;;;;;1.12;78.04;99463.23;1584164;88;25955;-78
2020/12/04 05:38:12;;;;;;;30.88;19.25;;;;;;;1.10;78.09;99467.68;1584595;88;26654;-78
2020/12/04 05:40:55;;;;;;;30.27;19.40;;;;;;;1.09;78.07;99461.73;1580432;88;26038;-79
2020/12/04 05:43:30;;;;;;;29.18;18.73;;;;;;;1.13;78.07;99457.61;1580844;86;26051;-78
2020/12/04 05:46:19;;;;;;;31.95;19.15;;;;;;;1.11;78.08;99459.01;1585819;87;25896;-78
2020/12/04 05:49:08;;;;;;;30.40;18.60;;;;;;;1.11;78.11;99462.39;1580116;88;26697;-78
2020/12/04 05:51:37;;;;;;;;;;;;;;;1.10;78.10;99465.92;1587162;87;25990;-79
2020/12/04 05:54:07;;;;;;;34.53;19.52;;;;;;;1.08;78.15;99465.70;1584808;88;25405;-78
2020/12/04 05:56:34;;;;;;;;;;;;;;;1.04;78.18;99470.77;1606768;87;27514;-79
2020/12/04 05:59:06;;;;;;;30.70;17.35;;;;;;;1.04;78.24;99474.16;1624021;85;25817;-79
2020/12/04 06:01:33;;;;;;;28.67;18.00;;;;;;;1.03;78.29;99471.21;1622795;85;26504;-78
2020/12/04 06:03:59;;;;;;;29.48;18.05;;;;;;;1.05;78.32;99475.77;1604459;85;26546;-79
2020/12/04 06:06:32;;;;;;;26.77;17.07;;;;;;;1.06;78.26;99476.58;1597957;86;25710;-79
2020/12/04 06:09:06;;;;;;;28.07;16.87;;;;;;;1.05;78.31;99482.67;1622514;86;25809;-79
2020/12/04 06:11:48;;;;;;;29.13;21.17;;;;;;;1.05;78.36;99485.25;1609544;86;44582;-78
2020/12/04 06:14:20;;;;;;;32.13;19.82;;;;;;;1.09;78.40;99482.31;1622019;86;25804;-78
2020/12/04 06:17:05;;;;;;;29.92;16.93;;;;;;;1.13;78.31;99476.91;1624458;86;26419;-79
2020/12/04 06:19:38;;;;;;;26.55;17.92;;;;;;;1.12;78.33;99476.09;1622549;85;25952;-78
2020/12/04 06:22:11;;;;;;;27.13;16.90;;;;;;;1.10;78.37;99466.39;1624728;85;26787;-79
2020/12/04 06:24:59;;;;;;;28.75;19.27;;;;;;;1.10;78.66;99466.39;1624426;85;25775;-78
2020/12/04 06:27:48;;;;;;;28.20;16.67;;;;;;;1.10;78.48;99468.48;1624563;84;25828;-78
2020/12/04 06:30:17;;;;;;;28.25;17.37;;;;;;;1.11;78.59;99475.25;1621668;86;25859;-78
2020/12/04 06:32:51;;;;;;;27.52;17.98;;;;;;;1.10;78.70;99462.06;1617993;85;25896;-78
2020/12/04 06:35:42;;;;;;;27.60;16.07;;;;;;;1.07;78.61;99464.08;1619148;84;25887;-78
2020/12/04 06:38:35;;;;;;;26.68;18.45;;;;;;;1.11;78.62;99475.73;1620312;85;25876;-78
2020/12/04 06:41:28;;;;;;;33.15;20.12;;;;;;;1.12;78.58;99479.95;1613849;85;26927;-78
2020/12/04 06:44:05;;;;;;;31.70;19.60;;;;;;;1.12;78.60;99481.25;1622129;85;25782;-78
2020/12/04 06:46:47;;;;;;;28.70;18.30;;;;;;;1.13;78.75;99479.48;1622392;84;26061;-77
2020/12/04 06:49:39;;;;;;;28.87;17.50;;;;;;;1.13;78.73;99487.20;1624202;86;25674;-78
2020/12/04 06:52:16;;;;;;;25.77;16.10;;;;;;;1.13;78.74;99492.34;1621358;84;26304;-78
2020/12/04 06:54:45;;;;;;;33.78;18.73;;;;;;;1.14;78.73;99494.78;1621853;86;25755;-78
2020/12/04 06:57:13;;;;;;;28.70;18.77;;;;;;;1.16;78.81;99494.66;1622445;84;25991;-79
2020/12/04 06:59:42;;;;;;;28.20;17.42;;;;;;;1.20;78.76;99499.45;1622290;85;25705;-78
2020/12/04 07:02:17;;;;;;;28.30;17.32;;;;;;;1.23;78.81;99506.09;1622802;85;25747;-78
2020/12/04 07:04:47;;;;;;;28.05;17.10;;;;;;;1.23;78.74;99507.39;1621478;85;25742;-79
2020/12/04 07:07:23;;;;;;;37.53;18.70;;;;;;;1.24;78.81;99507.72;1621662;85;26282;-79
2020/12/04 07:10:04;;;;;;;28.02;16.80;;;;;;;1.23;78.78;99503.05;1607288;86;26656;-78
2020/12/04 07:12:31;;;;;;;29.35;18.05;;;;;;;1.25;78.84;99501.62;1653495;84;26233;-79
2020/12/04 07:14:59;;;;;;;33.50;19.95;;;;;;;1.28;78.88;99491.91;1652861;83;27354;-79
2020/12/04 07:17:30;;;;;;;34.55;20.15;;;;;;;1.31;78.84;99497.27;1622213;85;26375;-79
2020/12/04 07:19:59;;;;;;;36.75;18.77;;;;;;;1.33;78.85;99504.38;1623919;85;25902;-79
2020/12/04 07:22:27;;;;;;;32.20;19.20;;;;;;;1.35;78.88;99500.40;1622505;83;26379;-80
2020/12/04 07:24:55;;;;;;;29.20;17.62;;;;;;;1.37;78.87;99505.77;1625238;85;25772;-80
2020/12/04 07:27:28;;;;;;;32.17;18.23;;;;;;;1.38;78.87;99509.16;1622367;85;25870;-80
2020/12/04 07:29:54;;;;;;;27.52;18.67;;;;;;;1.42;78.87;99501.50;1620378;85;25937;-81
2020/12/04 07:32:24;;;;;;;32.95;18.98;;;;;;;1.46;78.86;99511.42;1620829;83;25813;-80
2020/12/04 07:34:53;;;;;;;31.87;19.65;;;;;;;1.49;78.87;99500.87;1623274;85;25777;-80
2020/12/04 07:37:23;;;;;;;29.27;17.15;;;;;;;1.51;78.88;99510.58;1623791;84;25919;-80
2020/12/04 07:39:50;;;;;;;31.00;17.42;;;;;;;1.55;78.84;99508.11;1620324;83;30340;-80
2020/12/04 07:42:18;;;;;;;28.30;17.37;;;;;;;1.59;78.80;99503.98;1622376;85;25853;-80
2020/12/04 07:44:52;;;;;;;30.85;17.35;;;;;;;1.64;78.76;99501.84;1620501;86;26713;-80
2020/12/04 07:47:19;;;;;;;29.95;19.52;;;;;;;1.67;78.72;99504.97;1622443;86;25810;-81
2020/12/04 07:49:53;;;;;;;29.23;18.57;;;;;;;1.71;78.67;99506.32;1621519;86;26672;-80
2020/12/04 07:52:29;;;;;;;31.25;17.20;;;;;;;1.75;78.69;99517.20;1620238;86;25787;-80
2020/12/04 07:55:06;;;;;;;29.50;18.52;;;;;;;1.77;78.67;99517.86;1618582;86;25715;-81
2020/12/04 07:57:47;;;;;;;28.32;16.95;;;;;;;1.81;78.68;99506.85;1619814;86;26413;-81
2020/12/04 08:00:15;;;;;;;27.10;18.15;;;;;;;1.87;78.67;99507.13;1620536;86;25876;-80
2020/12/04 08:02:42;;;;;;;32.63;19.48;;;;;;;1.94;78.54;99507.44;1622288;86;25830;-81
2020/12/04 08:05:08;;;;;;;27.25;18.27;;;;;;;1.98;78.42;99510.08;1624873;86;26399;-80
2020/12/04 08:07:35;;;;;;;28.57;17.60;;;;;;;2.00;78.41;99510.30;1628006;86;25811;-80
2020/12/04 08:10:01;;;;;;;30.27;17.65;;;;;;;2.02;78.41;99517.07;1622178;86;25855;-80
2020/12/04 08:12:33;;;;;;;30.85;18.57;;;;;;;2.04;78.41;99516.00;1621233;86;26706;-78
2020/12/04 08:15:04;;;;;;;24.87;15.85;;;;;;;2.09;78.39;99519.48;1618536;86;25840;-78
2020/12/04 08:17:32;;;;;;;35.65;18.17;;;;;;;2.13;78.39;99519.09;1618145;86;25942;-79
2020/12/04 08:20:00;;;;;;;28.07;16.65;;;;;;;2.20;78.27;99524.52;1621173;86;25919;-78
2020/12/04 08:22:29;;;;;;;29.25;17.98;;;;;;;2.27;78.25;99523.06;1617179;86;25748;-78
2020/12/04 08:25:08;;;;;;;31.27;18.12;;;;;;;2.33;78.05;99519.13;1619903;86;26683;-78
2020/12/04 08:27:44;;;;;;;30.62;18.20;;;;;;;2.37;78.14;99507.59;1620694;86;25936;-78
2020/12/04 08:30:17;;;;;;;33.83;17.45;;;;;;;2.39;77.98;99497.48;1618618;86;25740;-78
2020/12/04 08:33:03;;;;;;;32.75;17.25;;;;;;;2.45;77.97;99502.58;1620939;86;25827;-78
2020/12/04 08:35:44;;;;;;;28.38;16.67;;;;;;;2.51;77.85;99507.67;1617573;86;26344;-78
2020/12/04 08:38:14;;;;;;;33.18;18.85;;;;;;;2.53;77.54;99502.72;1620323;86;26611;-77
2020/12/04 08:40:49;;;;;;;29.20;18.32;;;;;;;2.56;77.61;99502.45;1619908;86;25331;-77
2020/12/04 08:43:20;;;;;;;95.20;55.33;;;;;;;2.57;77.48;99499.42;1619930;86;25785;-78
2020/12/04 08:45:54;;;;;;;;;;;;;;;2.57;77.52;99506.68;1620685;86;25883;-77
2020/12/04 08:48:24;;;;;;;123.42;65.35;;;;;;;2.44;77.51;99487.59;1619774;86;25982;-78
2020/12/04 08:50:57;;;;;;;73.02;43.58;;;;;;;2.44;77.51;99487.59;1619383;86;25869;-78
2020/12/04 08:53:26;;;;;;;61.95;38.45;;;;;;;2.58;77.59;99502.33;1616831;86;25752;-78
2020/12/04 08:55:55;;;;;;;43.25;26.50;;;;;;;2.64;77.47;99500.49;1622578;86;25835;-78
2020/12/04 08:58:24;;;;;;;37.00;24.75;;;;;;;2.68;77.52;99507.03;1619765;86;25448;-78
2020/12/04 09:00:53;;;;;;;38.00;24.53;;;;;;;2.73;77.48;99504.86;1623252;86;25746;-78
2020/12/04 09:03:21;;;;;;;37.58;23.47;;;;;;;2.73;77.42;99498.41;1625757;86;25747;-78
2020/12/04 09:05:47;;;;;;;31.00;18.12;;;;;;;2.76;77.38;99490.87;1624104;86;25708;-81
2020/12/04 09:08:15;;;;;;;37.17;19.45;;;;;;;2.78;77.38;99485.08;1623188;86;25715;-78
2020/12/04 09:10:41;;;;;;;31.00;21.00;;;;;;;2.79;77.24;99499.14;1624403;86;26453;-78
2020/12/04 09:13:09;;;;;;;41.85;28.07;;;;;;;2.79;77.15;99497.86;1625940;86;25846;-79
2020/12/04 09:15:36;;;;;;;32.42;20.30;;;;;;;2.82;77.21;99502.73;1616919;87;25424;-79
2020/12/04 09:18:03;;;;;;;31.37;18.98;;;;;;;2.86;77.02;99499.40;1569165;89;26009;-79
2020/12/04 09:20:30;;;;;;;32.05;20.23;;;;;;;2.88;77.13;99511.22;1580035;88;25765;-78
2020/12/04 09:22:58;;;;;;;34.08;20.05;;;;;;;2.91;77.08;99511.91;1593044;87;25858;-79
2020/12/04 09:25:28;;;;;;;33.28;19.75;;;;;;;2.83;77.10;99497.91;1580201;88;26018;-79
2020/12/04 09:27:54;;;;;;;38.35;22.30;;;;;;;2.91;77.08;99501.10;1600706;87;25944;-78
2020/12/04 09:30:21;;;;;;;30.70;18.07;;;;;;;2.91;77.00;99506.27;1576854;88;25779;-79
2020/12/04 09:32:50;;;;;;;32.78;19.00;;;;;;;2.92;77.08;99483.84;1604122;87;26579;-78
2020/12/04 09:35:17;;;;;;;31.45;18.37;;;;;;;2.92;77.08;99483.84;1601614;87;25405;-79
2020/12/04 09:37:44;;;;;;;34.65;20.27;;;;;;;2.98;77.01;99477.67;1596456;87;25876;-79
2020/12/04 09:40:17;;;;;;;30.10;19.25;;;;;;;2.98;77.01;99477.67;1590395;86;25835;-79
2020/12/04 09:42:43;;;;;;;32.45;18.98;;;;;;;3.01;76.88;99488.20;1630725;86;25872;-78
2020/12/04 09:45:12;;;;;;;36.05;20.10;;;;;;;3.02;76.86;99475.62;1629833;86;26352;-78
2020/12/04 09:47:39;;;;;;;37.23;20.43;;;;;;;3.03;76.95;99472.91;1632032;86;25561;-78
2020/12/04 09:50:10;;;;;;;36.73;20.17;;;;;;;3.03;76.71;99458.72;1627715;86;26651;-79
2020/12/04 09:52:38;;;;;;;36.17;20.15;;;;;;;3.01;76.83;99459.33;1629684;86;26456;-78
2020/12/04 09:55:07;;;;;;;30.95;17.87;;;;;;;3.03;76.96;99463.07;1627862;86;25710;-79
2020/12/04 09:57:34;;;;;;;27.05;17.42;;;;;;;3.05;76.99;99458.56;1630021;86;26008;-79
2020/12/04 10:00:03;;;;;;;30.45;18.70;;;;;;;3.09;76.88;99458.16;1633063;86;25782;-79
2020/12/04 10:02:31;;;;;;;31.12;19.85;;;;;;;3.13;76.94;99458.67;1634482;86;26376;-79
2020/12/04 10:04:57;;;;;;;32.53;19.30;;;;;;;3.16;76.85;99463.56;1626983;86;25877;-79
2020/12/04 10:07:23;;;;;;;34.08;20.70;;;;;;;3.17;76.88;99460.05;1627600;86;25896;-79
2020/12/04 10:09:50;;;;;;;33.35;19.95;;;;;;;3.19;76.84;99459.89;1625630;86;25743;-79
2020/12/04 10:12:18;;;;;;;34.53;21.50;;;;;;;3.11;76.78;99448.51;1628245;86;25705;-79
2020/12/04 10:14:46;;;;;;;30.05;16.97;;;;;;;3.20;76.72;99462.34;1625676;86;25826;-79
2020/12/04 10:17:13;;;;;;;39.90;19.27;;;;;;;3.10;76.86;99432.66;1629432;86;26085;-79
2020/12/04 10:19:40;;;;;;;32.38;19.27;;;;;;;3.25;76.83;99452.41;1628457;86;25976;-79
2020/12/04 10:22:06;;;;;;;29.05;17.87;;;;;;;3.29;76.74;99433.09;1629165;86;25796;-79
2020/12/04 10:24:32;;;;;;;32.10;19.02;;;;;;;3.33;76.75;99448.65;1630399;86;25791;-79
2020/12/04 10:26:59;;;;;;;30.57;19.23;;;;;;;3.38;76.80;99445.63;1629129;86;25804;-78
2020/12/04 10:29:25;;;;;;;31.65;20.08;;;;;;;3.44;76.83;99447.66;1635286;86;25680;-78
2020/12/04 10:31:51;;;;;;;30.62;18.27;;;;;;;3.46;76.58;99435.39;1628639;86;26415;-79
2020/12/04 10:34:18;;;;;;;32.73;20.62;;;;;;;3.36;76.48;99415.27;1623754;86;25916;-78
2020/12/04 10:36:45;;;;;;;27.30;18.40;;;;;;;3.51;76.63;99433.69;1619333;86;26281;-79
2020/12/04 10:39:13;;;;;;;31.12;17.55;;;;;;;3.54;76.74;99431.63;1620585;86;25862;-79
2020/12/04 10:41:41;;;;;;;31.05;18.80;;;;;;;3.58;76.44;99434.75;1620896;86;25833;-79
2020/12/04 10:44:10;;;;;;;28.92;18.00;;;;;;;3.65;76.56;99437.08;1620320;86;26167;-78
2020/12/04 10:46:37;;;;;;;32.90;17.37;;;;;;;3.65;76.56;99437.08;1624355;86;26324;-78
2020/12/04 10:49:05;;;;;;;27.80;17.23;;;;;;;3.68;76.36;99447.16;1620602;86;25852;-79
2020/12/04 10:51:31;;;;;;;29.42;18.00;;;;;;;3.70;76.30;99450.39;1622598;86;26434;-79
2020/12/04 10:53:59;;;;;;;31.23;19.07;;;;;;;3.72;76.25;99449.78;1623075;86;25810;-79
2020/12/04 10:56:25;;;;;;;29.70;17.98;;;;;;;3.75;76.36;99447.39;1619854;86;25808;-79
2020/12/04 10:58:53;;;;;;;30.72;20.05;;;;;;;3.77;76.13;99441.61;1619021;86;26401;-79
2020/12/04 11:06:25;;;;;;;41.05;28.73;;;;;;;3.80;75.90;99419.83;1618951;86;25378;-79
2020/12/04 11:08:51;;;;;;;33.15;21.37;;;;;;;3.72;75.48;99389.53;1621651;86;25764;-79
2020/12/04 11:11:20;;;;;;;28.52;19.23;;;;;;;3.72;75.48;99389.53;1625321;86;26078;-79
2020/12/04 11:13:47;;;;;;;31.97;20.88;;;;;;;3.84;75.87;99407.74;1624429;86;25831;-79
2020/12/04 11:16:14;;;;;;;30.48;19.62;;;;;;;3.84;75.85;99401.77;1623294;86;25358;-79
2020/12/04 11:18:41;;;;;;;31.00;19.15;;;;;;;3.86;75.86;99411.48;1620716;86;25656;-79
2020/12/04 11:21:08;;;;;;;28.17;16.17;;;;;;;3.86;75.81;99405.83;1624509;86;25888;-79
2020/12/04 11:23:35;;;;;;;27.45;17.30;;;;;;;3.74;75.55;99386.33;1618811;86;25816;-79
2020/12/04 11:26:01;;;;;;;27.37;17.12;;;;;;;3.84;75.72;99402.57;1619624;86;25851;-79
2020/12/04 11:28:27;;;;;;;27.70;17.20;;;;;;;3.86;75.47;99397.27;1618093;86;26247;-78
2020/12/04 11:30:54;;;;;;;29.25;17.55;;;;;;;3.80;75.67;99387.03;1624037;86;25812;-79
2020/12/04 11:33:20;;;;;;;27.87;17.42;;;;;;;3.90;75.51;99393.42;1629171;86;26379;-79
2020/12/04 11:35:46;;;;;;;29.07;19.55;;;;;;;3.90;75.47;99372.28;1634056;86;25771;-78
2020/12/04 11:38:14;;;;;;;31.65;20.02;;;;;;;3.91;75.54;99376.97;1651537;84;25863;-79
2020/12/04 11:40:41;;;;;;;32.55;20.82;;;;;;;3.93;75.67;99376.35;1630643;86;25750;-78
2020/12/04 11:43:07;;;;;;;28.07;18.98;;;;;;;3.94;75.40;99379.26;1626414;86;26269;-79